SWA120 KRNO-KLAX
Flight info
| Callsign | SWA120 |
|---|---|
| Flight time | 1h 5m |
| Altitude | 28000 |
| Route | ZEFFR9 DARBI FRA REBRG IRNMN2 |
| Aircraft | B738/M-SDE2E3FGHIRWXY/LB1 |
Departure
| Time | 2026-04-20 18:18 |
|---|---|
| Airport | Reno Tahoe International Airport (KRNO) |
Arrival
| Time | 2026-04-20 19:23 |
|---|---|
| Airport | Los Angeles International Airport (KLAX) |
| Time | Latitude | Longitude | Altitude | Speed | Heading |
|---|---|---|---|---|---|
| 2026-04-20 17:54 | 39.50447 | -119.77232 | 4419 ft | 0 kts | 320° |
| 2026-04-20 18:05 | 39.50446 | -119.77232 | 4419 ft | 0 kts | 319° |
| 2026-04-20 18:06 | 39.50438 | -119.77228 | 4419 ft | 2 kts | 1° |
| 2026-04-20 18:06 | 39.50423 | -119.77224 | 4419 ft | 2 kts | 355° |
| 2026-04-20 18:06 | 39.50409 | -119.77226 | 4419 ft | 2 kts | 16° |
| 2026-04-20 18:06 | 39.50395 | -119.77234 | 4419 ft | 2 kts | 36° |
| 2026-04-20 18:07 | 39.50384 | -119.77248 | 4419 ft | 2 kts | 56° |
| 2026-04-20 18:07 | 39.50378 | -119.77265 | 4420 ft | 2 kts | 75° |
| 2026-04-20 18:07 | 39.50377 | -119.77284 | 4420 ft | 2 kts | 91° |
| 2026-04-20 18:07 | 39.50377 | -119.77303 | 4420 ft | 2 kts | 86° |
| 2026-04-20 18:08 | 39.50376 | -119.77322 | 4421 ft | 1 kts | 88° |
| 2026-04-20 18:08 | 39.50376 | -119.77319 | 4421 ft | 0 kts | 90° |
| 2026-04-20 18:08 | 39.50377 | -119.77311 | 4421 ft | 0 kts | 87° |
| 2026-04-20 18:12 | 39.50377 | -119.77303 | 4421 ft | 4 kts | 88° |
| 2026-04-20 18:12 | 39.50379 | -119.77227 | 4419 ft | 9 kts | 88° |
| 2026-04-20 18:13 | 39.50380 | -119.77132 | 4418 ft | 10 kts | 89° |
| 2026-04-20 18:13 | 39.50413 | -119.77074 | 4418 ft | 8 kts | 18° |
| 2026-04-20 18:13 | 39.50476 | -119.77067 | 4418 ft | 9 kts | 1° |
| 2026-04-20 18:13 | 39.50542 | -119.77068 | 4419 ft | 8 kts | 358° |
| 2026-04-20 18:14 | 39.50602 | -119.77070 | 4420 ft | 9 kts | 358° |
| 2026-04-20 18:14 | 39.50668 | -119.77071 | 4420 ft | 9 kts | 358° |
| 2026-04-20 18:14 | 39.50737 | -119.77074 | 4420 ft | 10 kts | 358° |
| 2026-04-20 18:14 | 39.50806 | -119.77074 | 4421 ft | 9 kts | 1° |
| 2026-04-20 18:15 | 39.50870 | -119.77071 | 4422 ft | 9 kts | 1° |
| 2026-04-20 18:15 | 39.50936 | -119.77070 | 4422 ft | 10 kts | 0° |
| 2026-04-20 18:15 | 39.51009 | -119.77068 | 4422 ft | 10 kts | 0° |
| 2026-04-20 18:15 | 39.51079 | -119.77068 | 4424 ft | 9 kts | 0° |
| 2026-04-20 18:16 | 39.51143 | -119.77067 | 4425 ft | 8 kts | 0° |
| 2026-04-20 18:16 | 39.51200 | -119.77067 | 4426 ft | 9 kts | 358° |
| 2026-04-20 18:16 | 39.51310 | -119.77073 | 4427 ft | 19 kts | 359° |
| 2026-04-20 18:16 | 39.51371 | -119.76974 | 4426 ft | 13 kts | 109° |
| 2026-04-20 18:17 | 39.51236 | -119.76922 | 4424 ft | 46 kts | 178° |
| 2026-04-20 18:17 | 39.50688 | -119.76926 | 4419 ft | 111 kts | 180° |
| 2026-04-20 18:17 | 39.49720 | -119.76927 | 4462 ft | 157 kts | 180° |
| 2026-04-20 18:17 | 39.48608 | -119.76859 | 4965 ft | 169 kts | 177° |
| 2026-04-20 18:18 | 39.47374 | -119.76743 | 5525 ft | 182 kts | 177° |
| 2026-04-20 18:18 | 39.46158 | -119.76670 | 6230 ft | 185 kts | 181° |
| 2026-04-20 18:18 | 39.44804 | -119.76788 | 6683 ft | 204 kts | 185° |
| 2026-04-20 18:18 | 39.43320 | -119.76909 | 7134 ft | 228 kts | 182° |
| 2026-04-20 18:19 | 39.41668 | -119.76949 | 7838 ft | 243 kts | 180° |
| 2026-04-20 18:19 | 39.39972 | -119.76952 | 8624 ft | 254 kts | 180° |
| 2026-04-20 18:19 | 39.38173 | -119.76952 | 9418 ft | 266 kts | 180° |
| 2026-04-20 18:19 | 39.36308 | -119.76955 | 10382 ft | 271 kts | 180° |
| 2026-04-20 18:20 | 39.34404 | -119.76962 | 11147 ft | 284 kts | 180° |
| 2026-04-20 18:20 | 39.32386 | -119.76969 | 11901 ft | 297 kts | 180° |
| 2026-04-20 18:20 | 39.30281 | -119.76944 | 12619 ft | 312 kts | 179° |
| 2026-04-20 18:20 | 39.28057 | -119.76862 | 13515 ft | 321 kts | 179° |
| 2026-04-20 18:21 | 39.25844 | -119.76762 | 14523 ft | 326 kts | 179° |
| 2026-04-20 18:21 | 39.23598 | -119.76662 | 15574 ft | 329 kts | 179° |
| 2026-04-20 18:21 | 39.21317 | -119.76569 | 16559 ft | 333 kts | 180° |
| 2026-04-20 18:21 | 39.18997 | -119.76480 | 17559 ft | 337 kts | 180° |
| 2026-04-20 18:22 | 39.16638 | -119.76392 | 18503 ft | 341 kts | 180° |
| 2026-04-20 18:22 | 39.14273 | -119.76302 | 19430 ft | 345 kts | 181° |
| 2026-04-20 18:22 | 39.11855 | -119.76212 | 20218 ft | 352 kts | 181° |
| 2026-04-20 18:22 | 39.09398 | -119.76121 | 21067 ft | 356 kts | 182° |
| 2026-04-20 18:23 | 39.06932 | -119.76029 | 21879 ft | 360 kts | 182° |
| 2026-04-20 18:23 | 39.04416 | -119.75935 | 22706 ft | 364 kts | 182° |
| 2026-04-20 18:23 | 39.01868 | -119.75841 | 23426 ft | 369 kts | 183° |
| 2026-04-20 18:23 | 38.99292 | -119.75745 | 24175 ft | 373 kts | 182° |
| 2026-04-20 18:24 | 38.96700 | -119.75648 | 24824 ft | 379 kts | 182° |
| 2026-04-20 18:24 | 38.94015 | -119.75550 | 25466 ft | 385 kts | 182° |
| 2026-04-20 18:24 | 38.91327 | -119.75452 | 26057 ft | 391 kts | 182° |
| 2026-04-20 18:24 | 38.88662 | -119.75355 | 26721 ft | 395 kts | 182° |
| 2026-04-20 18:25 | 38.85892 | -119.75252 | 27344 ft | 399 kts | 182° |
| 2026-04-20 18:25 | 38.83117 | -119.75146 | 27908 ft | 404 kts | 182° |
| 2026-04-20 18:25 | 38.80260 | -119.75040 | 28065 ft | 412 kts | 182° |
| 2026-04-20 18:25 | 38.77413 | -119.74932 | 28080 ft | 409 kts | 182° |
| 2026-04-20 18:26 | 38.71772 | -119.74714 | 28099 ft | 404 kts | 182° |
| 2026-04-20 18:26 | 38.66121 | -119.74502 | 28099 ft | 407 kts | 182° |
| 2026-04-20 18:27 | 38.60481 | -119.74293 | 28106 ft | 406 kts | 182° |
| 2026-04-20 18:27 | 38.54823 | -119.74080 | 28106 ft | 405 kts | 182° |
| 2026-04-20 18:28 | 38.49202 | -119.73871 | 28107 ft | 404 kts | 182° |
| 2026-04-20 18:28 | 38.43559 | -119.73663 | 28112 ft | 407 kts | 182° |
| 2026-04-20 18:29 | 38.37886 | -119.73453 | 28112 ft | 406 kts | 181° |
| 2026-04-20 18:29 | 38.32244 | -119.73247 | 28111 ft | 406 kts | 182° |
| 2026-04-20 18:30 | 38.26569 | -119.72932 | 28113 ft | 417 kts | 179° |
| 2026-04-20 18:30 | 38.20775 | -119.72259 | 28117 ft | 424 kts | 178° |
| 2026-04-20 18:31 | 38.14920 | -119.71506 | 28115 ft | 423 kts | 178° |
| 2026-04-20 18:31 | 38.09182 | -119.70790 | 28110 ft | 406 kts | 178° |
| 2026-04-20 18:32 | 38.03573 | -119.70122 | 28109 ft | 409 kts | 178° |
| 2026-04-20 18:32 | 37.97906 | -119.69470 | 28114 ft | 407 kts | 178° |
| 2026-04-20 18:33 | 37.92250 | -119.68823 | 28112 ft | 408 kts | 178° |
| 2026-04-20 18:33 | 37.86600 | -119.68176 | 28115 ft | 407 kts | 178° |
| 2026-04-20 18:34 | 37.80984 | -119.67533 | 28115 ft | 409 kts | 178° |
| 2026-04-20 18:34 | 37.75289 | -119.66882 | 28112 ft | 409 kts | 178° |
| 2026-04-20 18:35 | 37.69633 | -119.66236 | 28119 ft | 409 kts | 178° |
| 2026-04-20 18:35 | 37.63927 | -119.65589 | 28120 ft | 410 kts | 178° |
| 2026-04-20 18:36 | 37.58229 | -119.64942 | 28111 ft | 409 kts | 178° |
| 2026-04-20 18:36 | 37.52554 | -119.64298 | 28111 ft | 410 kts | 178° |
| 2026-04-20 18:37 | 37.46871 | -119.63657 | 28111 ft | 409 kts | 178° |
| 2026-04-20 18:37 | 37.41217 | -119.63014 | 28106 ft | 409 kts | 178° |
| 2026-04-20 18:38 | 37.35519 | -119.62371 | 28104 ft | 410 kts | 178° |
| 2026-04-20 18:38 | 37.29819 | -119.61729 | 28076 ft | 410 kts | 178° |
| 2026-04-20 18:39 | 37.24151 | -119.61089 | 28060 ft | 410 kts | 178° |
| 2026-04-20 18:39 | 37.18465 | -119.60451 | 28047 ft | 410 kts | 178° |
| 2026-04-20 18:40 | 37.12772 | -119.59813 | 28041 ft | 410 kts | 178° |
| 2026-04-20 18:40 | 37.07088 | -119.59416 | 28038 ft | 409 kts | 182° |
| 2026-04-20 18:41 | 37.01385 | -119.59537 | 28034 ft | 416 kts | 184° |
| 2026-04-20 18:41 | 36.95646 | -119.59727 | 28014 ft | 406 kts | 184° |
| 2026-04-20 18:42 | 36.89998 | -119.59872 | 28013 ft | 408 kts | 184° |
| 2026-04-20 18:42 | 36.84291 | -119.59993 | 28012 ft | 408 kts | 183° |
| 2026-04-20 18:43 | 36.78612 | -119.60096 | 28004 ft | 407 kts | 183° |
| 2026-04-20 18:43 | 36.72953 | -119.60195 | 28005 ft | 409 kts | 183° |
| 2026-04-20 18:44 | 36.67240 | -119.60294 | 28005 ft | 409 kts | 183° |
| 2026-04-20 18:44 | 36.61554 | -119.60393 | 28003 ft | 410 kts | 183° |
| 2026-04-20 18:45 | 36.58684 | -119.60442 | 27996 ft | 409 kts | 183° |
| 2026-04-20 18:45 | 36.55849 | -119.60489 | 28001 ft | 408 kts | 183° |
| 2026-04-20 18:45 | 36.53002 | -119.60537 | 27995 ft | 408 kts | 183° |
| 2026-04-20 18:45 | 36.50164 | -119.60586 | 27994 ft | 409 kts | 183° |
| 2026-04-20 18:46 | 36.47348 | -119.60636 | 27989 ft | 409 kts | 183° |
| 2026-04-20 18:46 | 36.44492 | -119.60685 | 27992 ft | 409 kts | 183° |
| 2026-04-20 18:46 | 36.41629 | -119.60734 | 27994 ft | 409 kts | 183° |
| 2026-04-20 18:46 | 36.38778 | -119.60783 | 27992 ft | 409 kts | 183° |
| 2026-04-20 18:47 | 36.35948 | -119.60832 | 27990 ft | 410 kts | 183° |
| 2026-04-20 18:47 | 36.33107 | -119.60879 | 27991 ft | 410 kts | 183° |
| 2026-04-20 18:47 | 36.30197 | -119.60931 | 27991 ft | 418 kts | 182° |
| 2026-04-20 18:47 | 36.27299 | -119.60981 | 27993 ft | 412 kts | 182° |
| 2026-04-20 18:48 | 36.24474 | -119.61028 | 27990 ft | 408 kts | 183° |
| 2026-04-20 18:48 | 36.21638 | -119.61077 | 27993 ft | 408 kts | 183° |
| 2026-04-20 18:48 | 36.18788 | -119.61125 | 27992 ft | 410 kts | 182° |
| 2026-04-20 18:48 | 36.15940 | -119.61172 | 27995 ft | 408 kts | 183° |
| 2026-04-20 18:49 | 36.13123 | -119.61219 | 27999 ft | 407 kts | 182° |
| 2026-04-20 18:49 | 36.10257 | -119.61268 | 27994 ft | 409 kts | 182° |
| 2026-04-20 18:49 | 36.07414 | -119.61317 | 27990 ft | 408 kts | 182° |
| 2026-04-20 18:49 | 36.04591 | -119.61364 | 27986 ft | 407 kts | 182° |
| 2026-04-20 18:50 | 36.01748 | -119.61444 | 27982 ft | 408 kts | 184° |
| 2026-04-20 18:50 | 35.98914 | -119.61706 | 27980 ft | 407 kts | 188° |
| 2026-04-20 18:50 | 35.96132 | -119.62297 | 27983 ft | 405 kts | 193° |
| 2026-04-20 18:50 | 35.93388 | -119.63148 | 27981 ft | 405 kts | 196° |
| 2026-04-20 18:51 | 35.90708 | -119.64116 | 27983 ft | 405 kts | 198° |
| 2026-04-20 18:51 | 35.88023 | -119.65138 | 27983 ft | 405 kts | 198° |
| 2026-04-20 18:51 | 35.85347 | -119.66171 | 27983 ft | 406 kts | 198° |
| 2026-04-20 18:51 | 35.82641 | -119.67216 | 27982 ft | 406 kts | 198° |
| 2026-04-20 18:52 | 35.79973 | -119.68240 | 27981 ft | 406 kts | 198° |
| 2026-04-20 18:52 | 35.77275 | -119.69267 | 27981 ft | 405 kts | 198° |
| 2026-04-20 18:52 | 35.74571 | -119.70290 | 27982 ft | 405 kts | 198° |
| 2026-04-20 18:52 | 35.71851 | -119.71316 | 27981 ft | 406 kts | 198° |
| 2026-04-20 18:53 | 35.69149 | -119.72330 | 27981 ft | 406 kts | 197° |
| 2026-04-20 18:53 | 35.66465 | -119.73316 | 27982 ft | 406 kts | 196° |
| 2026-04-20 18:53 | 35.63724 | -119.74151 | 27985 ft | 406 kts | 193° |
| 2026-04-20 18:53 | 35.60939 | -119.74857 | 27987 ft | 406 kts | 192° |
| 2026-04-20 18:54 | 35.58157 | -119.75500 | 27991 ft | 406 kts | 191° |
| 2026-04-20 18:54 | 35.55405 | -119.76123 | 27994 ft | 406 kts | 191° |
| 2026-04-20 18:54 | 35.52608 | -119.76760 | 27995 ft | 406 kts | 192° |
| 2026-04-20 18:54 | 35.49797 | -119.77411 | 28000 ft | 406 kts | 192° |
| 2026-04-20 18:55 | 35.44298 | -119.78710 | 28010 ft | 406 kts | 192° |
| 2026-04-20 18:55 | 35.38717 | -119.80048 | 28021 ft | 406 kts | 192° |
| 2026-04-20 18:56 | 35.33158 | -119.80923 | 28034 ft | 409 kts | 181° |
| 2026-04-20 18:56 | 35.27515 | -119.79619 | 28044 ft | 415 kts | 163° |
| 2026-04-20 18:57 | 35.22336 | -119.76452 | 28048 ft | 421 kts | 151° |
| 2026-04-20 18:57 | 35.17564 | -119.72224 | 28049 ft | 424 kts | 146° |
| 2026-04-20 18:58 | 35.12930 | -119.67749 | 28051 ft | 425 kts | 145° |
| 2026-04-20 18:58 | 35.08300 | -119.63313 | 28047 ft | 424 kts | 146° |
| 2026-04-20 18:59 | 35.03629 | -119.58916 | 28052 ft | 425 kts | 146° |
| 2026-04-20 18:59 | 34.98926 | -119.54534 | 28057 ft | 424 kts | 146° |
| 2026-04-20 19:00 | 34.94297 | -119.50238 | 28066 ft | 425 kts | 146° |
| 2026-04-20 19:00 | 34.89599 | -119.45905 | 28070 ft | 425 kts | 147° |
| 2026-04-20 19:01 | 34.84764 | -119.41573 | 28077 ft | 430 kts | 147° |
| 2026-04-20 19:01 | 34.80015 | -119.37341 | 28087 ft | 423 kts | 147° |
| 2026-04-20 19:02 | 34.75317 | -119.33159 | 28090 ft | 424 kts | 148° |
| 2026-04-20 19:02 | 34.70633 | -119.29021 | 27608 ft | 406 kts | 148° |
| 2026-04-20 19:03 | 34.68362 | -119.27038 | 26858 ft | 407 kts | 148° |
| 2026-04-20 19:03 | 34.66081 | -119.25054 | 26274 ft | 402 kts | 149° |
| 2026-04-20 19:03 | 34.63821 | -119.23092 | 25737 ft | 397 kts | 149° |
| 2026-04-20 19:03 | 34.61587 | -119.21162 | 25178 ft | 392 kts | 149° |
| 2026-04-20 19:04 | 34.59367 | -119.19253 | 24544 ft | 390 kts | 149° |
| 2026-04-20 19:04 | 34.57147 | -119.17347 | 23920 ft | 387 kts | 150° |
| 2026-04-20 19:04 | 34.54974 | -119.15472 | 23341 ft | 384 kts | 149° |
| 2026-04-20 19:04 | 34.52821 | -119.13583 | 22737 ft | 382 kts | 149° |
| 2026-04-20 19:05 | 34.50702 | -119.11704 | 22168 ft | 378 kts | 149° |
| 2026-04-20 19:05 | 34.48580 | -119.09817 | 21569 ft | 375 kts | 148° |
| 2026-04-20 19:05 | 34.46499 | -119.07967 | 21011 ft | 372 kts | 148° |
| 2026-04-20 19:05 | 34.44429 | -119.06131 | 20382 ft | 370 kts | 148° |
| 2026-04-20 19:06 | 34.42350 | -119.04301 | 19817 ft | 367 kts | 149° |
| 2026-04-20 19:06 | 34.40316 | -119.02532 | 19296 ft | 362 kts | 149° |
| 2026-04-20 19:06 | 34.38267 | -119.00763 | 18676 ft | 360 kts | 149° |
| 2026-04-20 19:06 | 34.36185 | -118.98969 | 18253 ft | 383 kts | 149° |
| 2026-04-20 19:07 | 34.33911 | -118.97026 | 18239 ft | 416 kts | 148° |
| 2026-04-20 19:07 | 34.31480 | -118.94904 | 18311 ft | 446 kts | 147° |
| 2026-04-20 19:07 | 34.28897 | -118.92592 | 18396 ft | 473 kts | 147° |
| 2026-04-20 19:07 | 34.26214 | -118.90159 | 18490 ft | 499 kts | 146° |
| 2026-04-20 19:08 | 34.23379 | -118.87569 | 18306 ft | 518 kts | 146° |
| 2026-04-20 19:08 | 34.17806 | -118.82394 | 17197 ft | 488 kts | 145° |
| 2026-04-20 19:08 | 34.15185 | -118.79911 | 16509 ft | 472 kts | 144° |
| 2026-04-20 19:09 | 34.12738 | -118.77389 | 15935 ft | 455 kts | 141° |
| 2026-04-20 19:09 | 34.10449 | -118.74870 | 15418 ft | 439 kts | 140° |
| 2026-04-20 19:09 | 34.08246 | -118.72376 | 14930 ft | 423 kts | 139° |
| 2026-04-20 19:09 | 34.06164 | -118.70001 | 14559 ft | 425 kts | 138° |
| 2026-04-20 19:10 | 34.04180 | -118.67187 | 14340 ft | 446 kts | 128° |
| 2026-04-20 19:10 | 34.02746 | -118.63931 | 13979 ft | 435 kts | 112° |
| 2026-04-20 19:10 | 34.02047 | -118.60489 | 13250 ft | 417 kts | 102° |
| 2026-04-20 19:10 | 34.01704 | -118.57098 | 12484 ft | 399 kts | 97° |
| 2026-04-20 19:11 | 34.01505 | -118.53866 | 11793 ft | 382 kts | 96° |
| 2026-04-20 19:11 | 34.01334 | -118.50726 | 11167 ft | 365 kts | 96° |
| 2026-04-20 19:11 | 34.01152 | -118.47794 | 10638 ft | 347 kts | 95° |
| 2026-04-20 19:11 | 34.01187 | -118.44940 | 10141 ft | 333 kts | 86° |
| 2026-04-20 19:12 | 34.01515 | -118.42255 | 9719 ft | 319 kts | 81° |
| 2026-04-20 19:12 | 34.01968 | -118.39698 | 9545 ft | 305 kts | 79° |
| 2026-04-20 19:12 | 34.02433 | -118.37264 | 9416 ft | 291 kts | 79° |
| 2026-04-20 19:12 | 34.02844 | -118.34935 | 9302 ft | 279 kts | 83° |
| 2026-04-20 19:13 | 34.03113 | -118.32707 | 9209 ft | 266 kts | 86° |
| 2026-04-20 19:13 | 34.03306 | -118.30554 | 9120 ft | 254 kts | 87° |
| 2026-04-20 19:13 | 34.03490 | -118.28482 | 9010 ft | 246 kts | 86° |
| 2026-04-20 19:13 | 34.03705 | -118.26429 | 8638 ft | 245 kts | 85° |
| 2026-04-20 19:14 | 34.03936 | -118.24441 | 8341 ft | 235 kts | 84° |
| 2026-04-20 19:14 | 34.04165 | -118.22482 | 7939 ft | 242 kts | 84° |
| 2026-04-20 19:14 | 34.04393 | -118.20476 | 7376 ft | 243 kts | 84° |
| 2026-04-20 19:14 | 34.04618 | -118.18482 | 6815 ft | 242 kts | 84° |
| 2026-04-20 19:15 | 34.04839 | -118.16465 | 6248 ft | 242 kts | 84° |
| 2026-04-20 19:15 | 34.05052 | -118.14500 | 5684 ft | 232 kts | 83° |
| 2026-04-20 19:15 | 34.05261 | -118.12639 | 5115 ft | 219 kts | 83° |
| 2026-04-20 19:15 | 34.05458 | -118.10881 | 4556 ft | 209 kts | 86° |
| 2026-04-20 19:16 | 34.05313 | -118.09183 | 3986 ft | 201 kts | 107° |
| 2026-04-20 19:16 | 34.04764 | -118.07687 | 3545 ft | 191 kts | 130° |
| 2026-04-20 19:16 | 34.03711 | -118.06876 | 3433 ft | 179 kts | 163° |
| 2026-04-20 19:16 | 34.02467 | -118.06545 | 3448 ft | 186 kts | 171° |
| 2026-04-20 19:17 | 34.01192 | -118.06709 | 3429 ft | 189 kts | 204° |
| 2026-04-20 19:17 | 34.00065 | -118.07552 | 3437 ft | 190 kts | 217° |
| 2026-04-20 19:17 | 33.99089 | -118.08604 | 3426 ft | 189 kts | 233° |
| 2026-04-20 19:17 | 33.98515 | -118.10009 | 3430 ft | 189 kts | 252° |
| 2026-04-20 19:18 | 33.98194 | -118.11551 | 3430 ft | 189 kts | 258° |
| 2026-04-20 19:18 | 33.97979 | -118.13120 | 3429 ft | 190 kts | 262° |
| 2026-04-20 19:18 | 33.97809 | -118.14690 | 3430 ft | 188 kts | 262° |
| 2026-04-20 19:18 | 33.97648 | -118.16246 | 3466 ft | 188 kts | 262° |
| 2026-04-20 19:19 | 33.97486 | -118.17820 | 3450 ft | 188 kts | 263° |
| 2026-04-20 19:19 | 33.97331 | -118.19366 | 3447 ft | 187 kts | 263° |
| 2026-04-20 19:19 | 33.97172 | -118.20941 | 3299 ft | 191 kts | 262° |
| 2026-04-20 19:19 | 33.97015 | -118.22511 | 3030 ft | 184 kts | 263° |
| 2026-04-20 19:20 | 33.96862 | -118.24039 | 2765 ft | 186 kts | 263° |
| 2026-04-20 19:20 | 33.96704 | -118.25586 | 2502 ft | 186 kts | 262° |
| 2026-04-20 19:20 | 33.96550 | -118.27113 | 2252 ft | 183 kts | 263° |
| 2026-04-20 19:20 | 33.96394 | -118.28633 | 2006 ft | 183 kts | 262° |
| 2026-04-20 19:21 | 33.96238 | -118.30141 | 1762 ft | 181 kts | 262° |
| 2026-04-20 19:21 | 33.96085 | -118.31633 | 1522 ft | 179 kts | 262° |
| 2026-04-20 19:21 | 33.95935 | -118.33117 | 1284 ft | 173 kts | 262° |
| 2026-04-20 19:21 | 33.95798 | -118.34475 | 1058 ft | 156 kts | 262° |
| 2026-04-20 19:22 | 33.95668 | -118.35744 | 870 ft | 153 kts | 263° |
| 2026-04-20 19:22 | 33.95539 | -118.37005 | 667 ft | 150 kts | 263° |
| 2026-04-20 19:22 | 33.95396 | -118.38334 | 637 ft | 168 kts | 261° |
| 2026-04-20 19:22 | 33.95263 | -118.39671 | 299 ft | 154 kts | 263° |
| 2026-04-20 19:23 | 33.95139 | -118.40873 | 125 ft | 134 kts | 262° |
| 2026-04-20 19:23 | 33.95053 | -118.41705 | 124 ft | 67 kts | 263° |
| 2026-04-20 19:23 | 33.94971 | -118.42136 | 121 ft | 43 kts | 241° |
| 2026-04-20 19:23 | 33.94900 | -118.42255 | 120 ft | 0 kts | 217° |
| 2026-04-20 19:25 | 33.94896 | -118.42258 | 120 ft | 4 kts | 215° |
| 2026-04-20 19:25 | 33.94820 | -118.42281 | 118 ft | 15 kts | 182° |
| 2026-04-20 19:25 | 33.94716 | -118.42264 | 117 ft | 8 kts | 165° |
| 2026-04-20 19:25 | 33.94696 | -118.42258 | 117 ft | 0 kts | 165° |
| 2026-04-20 19:26 | 33.94688 | -118.42255 | 117 ft | 1 kts | 155° |
| 2026-04-20 19:26 | 33.94684 | -118.42220 | 117 ft | 6 kts | 82° |
| 2026-04-20 19:26 | 33.94692 | -118.42158 | 118 ft | 9 kts | 81° |
| 2026-04-20 19:26 | 33.94705 | -118.42057 | 120 ft | 14 kts | 82° |
| 2026-04-20 19:27 | 33.94720 | -118.41921 | 121 ft | 14 kts | 83° |
| 2026-04-20 19:27 | 33.94735 | -118.41782 | 121 ft | 19 kts | 83° |
| 2026-04-20 19:27 | 33.94751 | -118.41633 | 121 ft | 11 kts | 83° |
| 2026-04-20 19:27 | 33.94762 | -118.41531 | 122 ft | 15 kts | 82° |
| 2026-04-20 19:28 | 33.94784 | -118.41381 | 123 ft | 20 kts | 79° |
| 2026-04-20 19:28 | 33.94804 | -118.41228 | 124 ft | 20 kts | 83° |
| 2026-04-20 19:28 | 33.94822 | -118.41055 | 124 ft | 24 kts | 83° |
| 2026-04-20 19:28 | 33.94845 | -118.40822 | 123 ft | 31 kts | 84° |
| 2026-04-20 19:29 | 33.94868 | -118.40598 | 120 ft | 22 kts | 83° |
| 2026-04-20 19:29 | 33.94888 | -118.40413 | 119 ft | 21 kts | 83° |
| 2026-04-20 19:29 | 33.94859 | -118.40300 | 117 ft | 11 kts | 137° |
| 2026-04-20 19:29 | 33.94823 | -118.40220 | 117 ft | 9 kts | 121° |
| 2026-04-20 19:30 | 33.94790 | -118.40180 | 117 ft | 4 kts | 143° |
| 2026-04-20 19:30 | 33.94786 | -118.40177 | 117 ft | 0 kts | 143° |